Time;durP1;ratioP1;P1;durP2;ratioP2;P2;SDS_P1;SDS_P2;PMS_P1;PMS_P2;Temp;Humidity;BMP_temperature;BMP_pressure;BME280_temperature;BME280_humidity;BME280_pressure;Samples;Min_cycle;Max_cycle;Signal;HPM_P1;HPM_P2
2022/09/14 00:00:41;;;;;;;14.70;9.90;;;;;;;15.37;76.56;99403.55;2106123;84;30186;-64
2022/09/14 00:03:44;;;;;;;16.27;11.50;;;;;;;15.31;76.47;99399.49;2105729;84;27629;-64
2022/09/14 00:06:46;;;;;;;12.53;10.98;;;;;;;15.25;76.39;99397.33;2105856;84;28625;-64
2022/09/14 00:09:51;;;;;;;13.00;10.35;;;;;;;15.19;76.37;99393.31;2106319;84;32290;-64
2022/09/14 00:12:52;;;;;;;17.05;12.40;;;;;;;15.13;76.36;99392.46;2106725;84;33369;-63
2022/09/14 00:15:53;;;;;;;13.10;10.72;;;;;;;15.04;76.32;99389.56;2130318;83;28930;-63
2022/09/14 00:19:04;;;;;;;15.32;10.30;;;;;;;14.98;76.31;99394.58;2144435;83;28219;-63
2022/09/14 00:22:05;;;;;;;11.95;10.78;;;;;;;14.92;76.32;99399.16;2143781;83;28755;-62
2022/09/14 00:25:08;;;;;;;14.15;10.98;;;;;;;14.83;76.02;99390.83;2143997;83;31128;-63
2022/09/14 00:28:10;;;;;;;13.78;10.88;;;;;;;14.77;76.35;99390.00;2144283;83;32999;-62
2022/09/14 00:31:13;;;;;;;12.33;10.68;;;;;;;14.71;76.48;99397.23;2144250;83;30161;-63
2022/09/14 00:34:16;;;;;;;13.08;10.88;;;;;;;14.64;76.54;99392.80;2143652;83;27718;-63
2022/09/14 00:37:17;;;;;;;14.93;10.72;;;;;;;14.53;76.61;99385.58;2164743;81;29882;-63
2022/09/14 00:40:18;;;;;;;12.05;10.80;;;;;;;14.53;76.61;99385.58;2142717;83;31473;-64
2022/09/14 00:43:20;;;;;;;14.95;11.53;;;;;;;14.47;76.87;99386.58;2165021;82;33350;-62
2022/09/14 00:46:22;;;;;;;13.70;11.05;;;;;;;14.50;77.14;99392.56;2142669;83;29969;-63
2022/09/14 00:49:38;;;;;;;17.50;11.97;;;;;;;14.52;77.45;99391.11;2142326;83;27675;-64
2022/09/14 00:52:41;;;;;;;;;;;;;;;14.41;77.59;99369.06;2166687;82;28770;-63
2022/09/14 00:55:43;;;;;;;13.15;10.13;;;;;;;14.56;77.82;99392.08;2165056;82;31435;-63
2022/09/14 00:58:47;;;;;;;15.78;10.93;;;;;;;14.57;77.90;99393.80;2142689;83;34131;-63
2022/09/14 01:01:48;;;;;;;19.60;11.48;;;;;;;14.58;78.00;99390.12;2117968;83;29169;-63
2022/09/14 01:04:50;;;;;;;14.98;11.18;;;;;;;14.58;78.06;99387.89;2142728;83;27987;-64
2022/09/14 01:08:26;;;;;;;11.93;10.72;;;;;;;14.58;78.10;99382.50;2142558;83;29049;-64
2022/09/14 01:11:37;;;;;;;;;;;;;;;14.57;78.17;99388.41;2145440;83;31467;-64
2022/09/14 01:15:10;;;;;;;11.18;9.90;;;;;;;14.55;78.17;99389.52;2142602;83;33976;-63
2022/09/14 01:18:35;;;;;;;18.70;12.53;;;;;;;14.48;77.88;99392.33;2134336;83;29026;-63
2022/09/14 01:21:40;;;;;;;18.87;11.88;;;;;;;14.48;77.88;99392.33;2141660;83;27648;-65
2022/09/14 01:24:55;;;;;;;17.55;12.43;;;;;;;14.48;78.43;99390.98;2142721;83;28660;-64
2022/09/14 01:27:59;;;;;;;17.65;12.00;;;;;;;14.49;78.57;99388.15;2142311;83;31470;-63
2022/09/14 01:31:04;;;;;;;17.67;11.95;;;;;;;14.50;78.67;99387.17;2142652;83;32991;-63
2022/09/14 01:34:17;;;;;;;15.43;12.45;;;;;;;14.53;78.81;99387.44;2142724;82;29484;-63
2022/09/14 01:37:38;;;;;;;17.27;13.83;;;;;;;14.54;78.87;99389.15;2137046;82;27716;-64
2022/09/14 01:40:47;;;;;;;16.67;12.28;;;;;;;14.56;78.90;99385.84;2062513;86;28738;-63
2022/09/14 01:43:56;;;;;;;13.98;11.70;;;;;;;14.58;79.11;99391.47;2062618;86;31044;-63
2022/09/14 01:47:04;;;;;;;16.48;12.50;;;;;;;14.60;79.11;99380.55;2062778;86;32448;-63
2022/09/14 01:50:10;;;;;;;14.13;12.23;;;;;;;14.62;79.17;99374.55;2062861;86;29753;-63
2022/09/14 01:53:20;;;;;;;15.70;12.20;;;;;;;14.41;79.11;99329.99;2062780;86;27821;-63
2022/09/14 01:56:42;;;;;;;18.32;12.55;;;;;;;14.61;79.08;99368.78;2040425;86;28702;-64
2022/09/14 01:59:46;;;;;;;17.62;12.03;;;;;;;14.60;79.08;99373.81;2030322;86;31709;-64
2022/09/14 02:03:02;;;;;;;15.20;12.37;;;;;;;14.60;79.20;99365.72;2029326;87;33650;-64
2022/09/14 02:06:14;;;;;;;16.32;12.63;;;;;;;14.59;79.29;99362.19;2029399;87;29201;-64
2022/09/14 02:09:20;;;;;;;15.93;13.35;;;;;;;14.59;79.20;99361.31;2028818;87;27805;-64
2022/09/14 02:12:23;;;;;;;23.90;12.70;;;;;;;14.57;79.22;99365.49;2028887;87;28397;-64
2022/09/14 02:15:25;;;;;;;14.45;12.13;;;;;;;14.42;79.31;99337.09;2028859;87;32291;-64
2022/09/14 02:18:27;;;;;;;17.00;12.43;;;;;;;14.42;79.31;99337.09;2107751;83;33769;-64
2022/09/14 02:21:31;;;;;;;17.73;13.50;;;;;;;14.52;79.22;99352.87;2136036;83;31153;-63
2022/09/14 02:24:33;;;;;;;17.00;12.70;;;;;;;14.49;79.48;99354.46;2136329;83;27684;-65
2022/09/14 02:27:35;;;;;;;15.72;12.58;;;;;;;14.49;79.27;99358.50;2104009;84;29385;-64
2022/09/14 02:30:58;;;;;;;18.15;13.10;;;;;;;14.46;79.24;99360.13;2120028;84;56190;-65
2022/09/14 02:34:14;;;;;;;18.37;12.98;;;;;;;14.43;79.30;99349.59;2116367;84;33863;-63
2022/09/14 02:37:22;;;;;;;18.48;13.13;;;;;;;;;;2111272;83;28491;-63
2022/09/14 02:40:44;;;;;;;17.55;13.05;;;;;;;14.39;79.41;99349.47;2109939;84;28048;-63
2022/09/14 02:44:14;;;;;;;14.58;13.08;;;;;;;14.26;79.43;99335.65;2110100;84;29892;-64
2022/09/14 02:47:22;;;;;;;16.57;13.53;;;;;;;14.34;79.44;99340.89;2110309;84;31619;-64
2022/09/14 02:50:38;;;;;;;16.10;13.20;;;;;;;14.33;79.52;99341.87;2110268;84;33764;-63
2022/09/14 02:54:05;;;;;;;17.65;13.32;;;;;;;14.31;79.67;99343.86;2110114;84;29745;-63
2022/09/14 02:57:06;;;;;;;17.98;13.95;;;;;;;14.32;79.77;99341.50;2175400;81;27682;-63
2022/09/14 03:00:09;;;;;;;17.77;14.30;;;;;;;14.33;79.87;99341.87;2137310;83;29089;-63
2022/09/14 03:03:15;;;;;;;17.50;13.58;;;;;;;14.32;79.97;99353.16;2176484;81;31009;-64
2022/09/14 03:06:17;;;;;;;18.23;13.28;;;;;;;14.32;79.95;99345.55;2138870;83;34279;-63
2022/09/14 03:09:19;;;;;;;20.43;15.38;;;;;;;14.30;79.97;99354.27;2176306;81;29045;-63
2022/09/14 03:12:20;;;;;;;18.55;14.07;;;;;;;14.09;80.01;99320.83;2139520;83;27597;-64
2022/09/14 03:15:22;;;;;;;21.65;15.65;;;;;;;14.26;80.04;99354.51;2176294;81;29240;-64
2022/09/14 03:18:23;;;;;;;18.80;15.13;;;;;;;14.24;80.12;99352.90;2139084;83;32450;-64
2022/09/14 03:21:25;;;;;;;19.12;15.15;;;;;;;14.23;80.13;99346.67;2176489;81;33421;-64
2022/09/14 03:24:27;;;;;;;19.75;15.72;;;;;;;14.22;80.14;99337.37;2134699;83;29469;-64
2022/09/14 03:27:28;;;;;;;16.05;13.28;;;;;;;14.20;80.16;99337.98;2110366;84;27653;-63
2022/09/14 03:30:31;;;;;;;20.75;14.33;;;;;;;13.95;80.23;99295.50;2110030;84;28666;-63
2022/09/14 03:33:33;;;;;;;23.55;15.88;;;;;;;14.14;80.24;99332.61;2125157;81;31033;-63
2022/09/14 03:36:35;;;;;;;19.40;14.25;;;;;;;14.11;80.11;99334.19;2104057;84;33711;-63
2022/09/14 03:39:38;;;;;;;19.00;13.90;;;;;;;13.91;80.43;99311.05;2144118;83;30402;-64
2022/09/14 03:42:45;;;;;;;17.37;13.45;;;;;;;13.91;80.43;99311.05;2107986;84;28206;-63
2022/09/14 03:45:47;;;;;;;17.70;13.15;;;;;;;13.98;80.11;99332.45;2144192;83;29529;-63
2022/09/14 03:48:51;;;;;;;19.75;12.95;;;;;;;13.95;80.12;99334.07;2107802;84;31770;-64
2022/09/14 03:51:52;;;;;;;19.27;13.95;;;;;;;13.91;80.11;99331.72;2144065;83;32956;-64
2022/09/14 03:54:55;;;;;;;16.17;13.55;;;;;;;13.88;80.13;99331.98;2116384;83;30200;-63
2022/09/14 03:57:56;;;;;;;16.95;13.55;;;;;;;13.85;80.26;99329.53;2146085;83;27605;-64
2022/09/14 04:01:05;;;;;;;18.27;13.85;;;;;;;13.81;80.24;99328.42;2146224;83;29605;-63
2022/09/14 04:04:07;;;;;;;17.25;14.10;;;;;;;13.78;80.30;99332.70;2145720;83;31045;-63
2022/09/14 04:07:09;;;;;;;20.65;15.10;;;;;;;13.74;80.35;99327.18;2146034;83;33594;-63
2022/09/14 04:10:10;;;;;;;16.55;14.60;;;;;;;13.71;80.36;99331.48;2145884;83;29419;-64
2022/09/14 04:13:12;;;;;;;21.00;15.08;;;;;;;13.69;80.41;99329.40;2146406;83;27731;-64
2022/09/14 04:16:15;;;;;;;22.27;15.40;;;;;;;13.52;80.42;99306.01;2146287;83;29066;-63
2022/09/14 04:19:17;;;;;;;20.72;16.20;;;;;;;13.64;80.58;99322.16;2146173;83;31015;-64
2022/09/14 04:22:18;;;;;;;18.52;14.55;;;;;;;13.62;80.56;99320.95;2145941;83;34223;-64
2022/09/14 04:25:22;;;;;;;16.20;13.78;;;;;;;13.63;80.73;99328.52;2162389;81;30032;-64
2022/09/14 04:28:25;;;;;;;23.42;14.07;;;;;;;13.61;80.68;99331.34;2146287;83;27553;-63
2022/09/14 04:31:27;;;;;;;17.85;14.70;;;;;;;13.60;80.74;99330.09;2183564;81;29513;-64
2022/09/14 04:34:29;;;;;;;20.25;14.23;;;;;;;13.60;80.78;99326.06;2145803;83;31416;-65
2022/09/14 04:37:31;;;;;;;21.37;15.28;;;;;;;13.60;80.87;99337.70;2171585;81;33780;-63
2022/09/14 04:40:33;;;;;;;16.30;13.45;;;;;;;13.59;81.02;99325.22;2164712;82;30226;-64
2022/09/14 04:43:36;;;;;;;18.92;15.30;;;;;;;13.60;80.95;99323.37;2165290;82;28282;-64
2022/09/14 04:46:40;;;;;;;19.85;15.58;;;;;;;13.60;81.07;99332.32;2164850;82;29520;-63
2022/09/14 04:49:42;;;;;;;21.57;15.68;;;;;;;13.62;81.19;99335.75;2165082;82;31030;-64
2022/09/14 04:52:44;;;;;;;19.70;15.38;;;;;;;13.64;81.36;99331.58;2165024;82;32775;-64
2022/09/14 04:55:46;;;;;;;19.23;15.90;;;;;;;13.66;81.45;99343.93;2154927;82;29098;-64
2022/09/14 04:58:57;;;;;;;21.45;15.78;;;;;;;13.69;81.51;99345.55;2144945;82;27696;-64
2022/09/14 05:01:59;;;;;;;17.65;14.90;;;;;;;13.72;81.47;99345.78;2144854;82;28816;-64
2022/09/14 05:05:01;;;;;;;19.17;15.60;;;;;;;13.74;81.48;99341.14;2145161;83;31425;-64
2022/09/14 05:08:02;;;;;;;18.42;15.95;;;;;;;13.70;81.60;99313.62;2144505;82;33056;-64
2022/09/14 05:11:06;;;;;;;27.20;16.30;;;;;;;13.70;81.60;99313.62;2144535;82;29707;-63
2022/09/14 05:14:13;;;;;;;20.85;15.25;;;;;;;13.89;81.76;99338.59;2144734;82;27686;-63
2022/09/14 05:17:15;;;;;;;19.65;14.85;;;;;;;13.95;81.84;99342.15;2145018;82;28693;-64
2022/09/14 05:20:17;;;;;;;22.67;15.93;;;;;;;14.02;81.98;99333.09;2144633;82;31579;-63
2022/09/14 05:23:18;;;;;;;21.60;16.70;;;;;;;14.12;82.13;99331.36;2151294;82;32997;-63
2022/09/14 05:26:21;;;;;;;24.40;18.37;;;;;;;14.25;82.25;99333.94;2152993;82;29898;-63
2022/09/14 05:29:22;;;;;;;27.62;17.23;;;;;;;14.37;82.39;99335.26;2147932;82;27615;-65
2022/09/14 05:32:23;;;;;;;26.12;18.17;;;;;;;14.48;82.39;99334.39;2147703;82;29834;-64
2022/09/14 05:35:25;;;;;;;24.87;19.27;;;;;;;14.56;82.39;99317.95;2147422;82;32279;-64
2022/09/14 05:38:30;;;;;;;28.52;20.17;;;;;;;14.69;82.52;99339.41;2139029;82;34235;-64
2022/09/14 05:41:31;;;;;;;32.90;22.67;;;;;;;14.79;82.62;99335.46;2137336;83;30257;-64
2022/09/14 05:44:33;;;;;;;31.60;23.42;;;;;;;14.89;82.63;99344.99;2137291;83;28012;-64
2022/09/14 05:47:35;;;;;;;34.27;23.70;;;;;;;14.98;82.85;99348.26;2137088;83;29901;-64
2022/09/14 05:50:36;;;;;;;38.73;24.18;;;;;;;15.19;82.81;99350.14;2137196;83;31709;-64
2022/09/14 05:53:39;;;;;;;38.65;23.47;;;;;;;15.19;82.81;99350.14;2153748;81;33007;-64
2022/09/14 05:56:41;;;;;;;32.17;24.80;;;;;;;15.28;82.69;99337.20;2139765;81;29124;-64
2022/09/14 05:59:43;;;;;;;34.13;24.90;;;;;;;15.38;82.58;99331.88;2176542;81;27742;-64
2022/09/14 06:02:53;;;;;;;35.70;25.82;;;;;;;15.48;82.58;99327.91;2137294;83;29084;-65
2022/09/14 06:05:59;;;;;;;30.72;22.82;;;;;;;15.57;82.48;99324.91;2176511;81;31012;-65
2022/09/14 06:09:01;;;;;;;34.90;22.73;;;;;;;15.67;82.43;99326.31;2134958;83;33007;-64
2022/09/14 06:12:02;;;;;;;28.32;23.70;;;;;;;15.75;82.25;99322.44;2176175;81;29084;-65
2022/09/14 06:15:05;;;;;;;31.57;23.02;;;;;;;15.85;82.30;99331.95;2176451;81;27706;-64
2022/09/14 06:18:07;;;;;;;31.30;22.30;;;;;;;15.97;82.29;99330.05;2138950;83;29713;-65
2022/09/14 06:21:13;;;;;;;29.27;21.55;;;;;;;16.07;82.26;99320.13;2176494;81;31014;-65
2022/09/14 06:24:14;;;;;;;31.37;22.42;;;;;;;16.18;82.13;99329.99;2160970;81;33142;-64
2022/09/14 06:27:15;;;;;;;33.53;23.02;;;;;;;16.29;81.98;99327.69;2176355;81;29404;-64
2022/09/14 06:30:17;;;;;;;27.62;21.60;;;;;;;16.40;81.90;99323.04;2176373;81;28109;-64
2022/09/14 06:33:19;;;;;;;28.20;20.15;;;;;;;16.52;81.78;99321.56;2176541;81;29072;-65
2022/09/14 06:36:24;;;;;;;26.68;20.50;;;;;;;16.65;81.65;99315.91;2176427;81;31110;-65
2022/09/14 06:39:25;;;;;;;26.60;19.30;;;;;;;16.80;81.57;99323.09;2176598;81;33062;-64
2022/09/14 06:42:29;;;;;;;24.45;17.50;;;;;;;16.95;81.33;99320.39;2176595;81;30116;-65
2022/09/14 06:45:35;;;;;;;28.80;19.45;;;;;;;17.18;81.34;99326.02;2176507;81;28259;-65
2022/09/14 06:48:44;;;;;;;23.98;17.60;;;;;;;17.41;81.03;99326.56;2176511;81;28657;-63
2022/09/14 06:51:46;;;;;;;20.62;16.95;;;;;;;17.67;81.03;99331.34;2176609;81;31070;-64
2022/09/14 06:54:48;;;;;;;22.90;16.93;;;;;;;17.90;80.61;99328.66;2147798;81;33338;-64
2022/09/14 06:57:49;;;;;;;20.65;15.75;;;;;;;18.10;80.30;99334.05;2176684;81;29004;-64
2022/09/14 07:00:50;;;;;;;22.35;16.23;;;;;;;18.25;79.79;99331.68;2139452;83;27625;-65
2022/09/14 07:03:52;;;;;;;20.40;15.43;;;;;;;18.36;79.46;99332.86;2176607;81;28450;-65
2022/09/14 07:06:53;;;;;;;19.27;15.95;;;;;;;18.46;78.91;99334.65;2139309;83;32202;-65
2022/09/14 07:09:55;;;;;;;19.15;15.03;;;;;;;18.50;78.54;99327.92;2176640;81;33374;-65
2022/09/14 07:13:04;;;;;;;18.90;14.70;;;;;;;18.58;78.35;99322.58;2137694;83;28812;-65
2022/09/14 07:16:07;;;;;;;18.95;12.47;;;;;;;18.69;78.11;99326.94;2176804;81;27988;-65
2022/09/14 07:19:14;;;;;;;23.05;12.80;;;;;;;18.81;78.09;99320.28;2139166;83;28911;-65
2022/09/14 07:22:15;;;;;;;15.68;11.95;;;;;;;18.94;77.74;99332.16;2176387;81;31022;-64
2022/09/14 07:25:16;;;;;;;15.58;11.75;;;;;;;19.08;77.38;99332.13;2127516;83;33584;-63
2022/09/14 07:28:17;;;;;;;14.70;11.12;;;;;;;19.20;76.98;99329.17;2176625;81;29496;-65
2022/09/14 07:31:42;;;;;;;17.57;12.07;;;;;;;19.31;76.88;99328.08;2176856;81;27504;-64
2022/09/14 07:34:43;;;;;;;12.47;11.18;;;;;;;19.42;76.42;99328.69;2176721;81;28400;-64
2022/09/14 07:37:45;;;;;;;22.42;12.00;;;;;;;19.56;76.18;99330.48;2176552;81;31411;-64
2022/09/14 07:40:46;;;;;;;16.77;10.03;;;;;;;19.68;75.76;99322.41;2176684;81;33033;-63
2022/09/14 07:43:50;;;;;;;20.10;10.23;;;;;;;19.80;75.29;99322.13;2176362;81;31188;-65
2022/09/14 07:46:51;;;;;;;14.40;9.37;;;;;;;19.89;74.98;99320.70;2176944;81;27644;-64
2022/09/14 07:49:53;;;;;;;19.48;10.00;;;;;;;19.99;74.26;99321.11;2176660;81;29032;-63
2022/09/14 07:52:55;;;;;;;11.93;8.10;;;;;;;20.09;74.50;99319.63;2167521;81;31076;-65
2022/09/14 07:56:01;;;;;;;13.10;9.40;;;;;;;20.22;74.21;99315.95;2176246;81;32466;-64
2022/09/14 07:59:04;;;;;;;10.50;8.43;;;;;;;20.36;73.96;99320.42;2176610;81;29039;-65
2022/09/14 08:02:10;;;;;;;11.22;8.23;;;;;;;20.39;72.98;99321.45;2139381;83;28013;-63
2022/09/14 08:05:12;;;;;;;11.90;7.60;;;;;;;20.44;72.95;99324.52;2176687;81;28684;-63
2022/09/14 08:08:13;;;;;;;11.43;8.33;;;;;;;20.53;72.94;99323.55;2139063;83;31798;-64
2022/09/14 08:11:30;;;;;;;15.48;8.63;;;;;;;20.62;72.76;99320.34;2136913;83;34315;-64
2022/09/14 08:14:32;;;;;;;15.40;8.20;;;;;;;20.69;72.04;99321.89;2176487;81;29444;-65
2022/09/14 08:17:35;;;;;;;12.58;6.35;;;;;;;20.77;71.52;99320.07;2176069;81;27730;-65
2022/09/14 08:20:37;;;;;;;11.43;5.67;;;;;;;20.72;71.14;99326.48;2139746;83;29680;-65
2022/09/14 08:23:39;;;;;;;7.35;5.15;;;;;;;20.68;70.64;99314.25;2176033;81;31477;-64
2022/09/14 08:26:41;;;;;;;12.78;4.80;;;;;;;20.70;70.39;99318.98;2176073;81;33137;-64
2022/09/14 08:29:42;;;;;;;11.25;4.97;;;;;;;20.65;69.58;99310.48;2139455;83;29573;-65
2022/09/14 08:32:45;;;;;;;11.05;4.58;;;;;;;20.65;69.48;99314.05;2177134;81;27654;-64
2022/09/14 08:35:46;;;;;;;6.42;3.65;;;;;;;20.70;69.20;99307.27;2139445;83;28256;-65
2022/09/14 08:38:48;;;;;;;7.95;3.95;;;;;;;20.72;68.79;99302.51;2176568;81;31436;-65
2022/09/14 08:41:55;;;;;;;6.92;4.28;;;;;;;20.75;68.46;99309.86;2139281;83;33132;-65
2022/09/14 08:45:00;;;;;;;6.25;4.03;;;;;;;20.85;68.58;99306.15;2137377;83;29980;-64
2022/09/14 08:48:03;;;;;;;8.20;4.37;;;;;;;20.99;68.59;99312.29;2176287;81;27744;-65
2022/09/14 08:51:06;;;;;;;7.22;4.58;;;;;;;21.10;67.83;99309.23;2139170;83;29119;-65
2022/09/14 08:54:09;;;;;;;8.63;4.60;;;;;;;21.14;67.22;99312.45;2175972;81;32457;-64
2022/09/14 08:57:38;;;;;;;11.78;5.30;;;;;;;21.16;67.12;99305.49;2176574;81;32937;-65
2022/09/14 09:01:10;;;;;;;7.55;4.12;;;;;;;21.21;67.07;99302.59;2167720;81;30367;-64
2022/09/14 09:04:42;;;;;;;14.65;4.97;;;;;;;21.24;66.68;99300.91;2138821;82;27703;-65
2022/09/14 09:07:52;;;;;;;9.45;4.20;;;;;;;21.36;66.91;99304.11;2170447;82;28695;-63
2022/09/14 09:10:54;;;;;;;9.28;4.62;;;;;;;21.51;66.78;99305.64;2170537;81;31448;-65
2022/09/14 09:13:56;;;;;;;9.10;3.80;;;;;;;21.63;66.43;99303.45;2170759;81;32714;-65
2022/09/14 09:17:02;;;;;;;11.73;3.20;;;;;;;21.69;65.71;99305.47;2170779;81;29339;-65
2022/09/14 09:20:25;;;;;;;7.67;3.58;;;;;;;21.76;65.37;99300.17;2168171;82;27576;-65
2022/09/14 09:23:29;;;;;;;6.15;3.27;;;;;;;21.84;64.96;99302.89;2152412;82;28452;-65
2022/09/14 09:26:33;;;;;;;6.25;3.20;;;;;;;21.97;64.65;99298.76;2137666;82;32300;-65
2022/09/14 09:29:34;;;;;;;8.85;3.75;;;;;;;22.06;64.50;99300.45;2137836;82;34103;-65
2022/09/14 09:32:36;;;;;;;13.75;4.00;;;;;;;22.21;64.55;99304.64;2137987;83;29384;-63
2022/09/14 09:35:38;;;;;;;8.33;3.40;;;;;;;22.29;64.03;99301.89;2138038;82;27652;-65
2022/09/14 09:38:39;;;;;;;7.85;3.20;;;;;;;22.35;63.71;99300.83;2137641;82;29070;-64
2022/09/14 09:41:58;;;;;;;8.98;3.52;;;;;;;22.42;63.42;99302.70;2137906;83;31068;-65
2022/09/14 09:45:05;;;;;;;6.42;3.77;;;;;;;22.43;63.03;99297.58;2137507;82;34184;-63
2022/09/14 09:48:10;;;;;;;5.50;3.83;;;;;;;22.51;63.11;99302.67;2137822;82;29981;-64
2022/09/14 09:51:18;;;;;;;7.17;4.72;;;;;;;22.63;63.15;99304.48;2138036;82;27717;-64
2022/09/14 09:54:29;;;;;;;6.40;4.17;;;;;;;22.63;62.27;99300.40;2165270;82;28664;-64
2022/09/14 09:57:34;;;;;;;10.43;4.05;;;;;;;22.61;62.57;99298.69;2170426;82;31237;-65
2022/09/14 10:00:36;;;;;;;6.05;3.90;;;;;;;22.67;62.40;99294.39;2170764;82;33010;-64
2022/09/14 10:03:39;;;;;;;7.60;4.30;;;;;;;22.78;62.36;99299.09;2170574;82;29385;-65
2022/09/14 10:06:47;;;;;;;9.83;3.67;;;;;;;22.79;61.61;99292.60;2170896;82;27670;-65
2022/09/14 10:10:10;;;;;;;5.53;3.50;;;;;;;22.71;60.90;99291.64;2170831;82;28824;-65
2022/09/14 10:13:35;;;;;;;6.12;4.62;;;;;;;22.68;61.61;99287.90;2170255;82;31176;-65
2022/09/14 10:16:39;;;;;;;7.70;3.77;;;;;;;22.75;61.39;99292.13;2036255;86;33619;-64
2022/09/14 10:19:52;;;;;;;9.08;4.22;;;;;;;22.79;61.47;99281.19;2049555;86;29023;-64
2022/09/14 10:22:54;;;;;;;8.63;4.00;;;;;;;22.83;61.02;99274.33;2040913;86;27655;-66
2022/09/14 10:26:18;;;;;;;6.65;4.30;;;;;;;22.85;60.85;99277.70;2044815;86;29175;-65
2022/09/14 10:29:40;;;;;;;11.45;4.20;;;;;;;22.87;60.54;99276.17;2068493;86;31027;-64
2022/09/14 10:33:02;;;;;;;6.20;3.85;;;;;;;22.84;60.51;99280.10;2068126;86;33223;-65
2022/09/14 10:36:11;;;;;;;9.83;4.40;;;;;;;22.83;60.37;99280.30;2040964;86;29394;-64
2022/09/14 10:39:41;;;;;;;10.85;4.65;;;;;;;22.80;60.06;99273.33;2068274;84;27992;-64
2022/09/14 10:43:02;;;;;;;8.13;4.60;;;;;;;22.71;60.17;99279.85;2068289;85;29820;-64
2022/09/14 10:46:06;;;;;;;10.18;4.28;;;;;;;22.66;60.47;99280.41;2068394;86;31695;-64
2022/09/14 10:49:36;;;;;;;6.00;4.00;;;;;;;22.69;60.64;99272.36;2068514;86;32974;-63
2022/09/14 10:53:04;;;;;;;7.70;3.52;;;;;;;22.79;60.90;99274.86;2005226;88;30176;-64
2022/09/14 10:56:31;;;;;;;8.25;3.80;;;;;;;22.89;60.69;99266.76;1984733;89;27745;-64
2022/09/14 10:59:50;;;;;;;8.15;4.55;;;;;;;22.96;60.16;99266.88;1984753;89;28713;-64
2022/09/14 11:03:11;;;;;;;12.25;4.53;;;;;;;23.02;59.86;99266.16;1957059;90;31403;-64
2022/09/14 11:06:56;;;;;;;7.12;4.22;;;;;;;23.08;59.72;99261.84;2001959;88;33009;-64
2022/09/14 11:10:33;;;;;;;7.08;4.62;;;;;;;23.16;59.79;99262.29;1961213;90;29232;-64
2022/09/14 11:13:56;;;;;;;7.83;4.55;;;;;;;23.21;59.36;99255.80;1996804;88;27727;-64
2022/09/14 11:17:22;;;;;;;7.10;4.87;;;;;;;23.21;59.14;99253.90;2018842;88;29505;-64
2022/09/14 11:21:03;;;;;;;10.78;4.75;;;;;;;23.14;59.06;99254.29;2019083;88;31433;-64
2022/09/14 11:24:38;;;;;;;8.50;4.03;;;;;;;23.13;59.04;99248.98;2060445;85;33077;-64
2022/09/14 11:27:48;;;;;;;9.68;5.20;;;;;;;23.03;59.00;99249.23;2083631;85;29423;-65
2022/09/14 11:30:57;;;;;;;5.95;3.95;;;;;;;22.90;58.75;99242.52;2083476;85;27811;-64
2022/09/14 11:34:30;;;;;;;11.78;4.90;;;;;;;22.87;59.29;99246.14;2010725;88;29420;-63
2022/09/14 11:37:39;;;;;;;10.08;4.45;;;;;;;22.93;59.52;99243.19;2010888;88;31443;-64
2022/09/14 11:40:59;;;;;;;6.62;4.28;;;;;;;22.94;59.29;99236.70;2088451;85;34168;-64
2022/09/14 11:44:27;;;;;;;9.08;4.47;;;;;;;22.95;59.19;99238.39;2147735;81;29090;-64
2022/09/14 11:47:54;;;;;;;10.18;5.22;;;;;;;23.02;59.14;99229.78;2184549;81;27683;-63
2022/09/14 11:51:28;;;;;;;5.80;3.58;;;;;;;23.11;59.08;99224.59;2184617;81;28682;-65
2022/09/14 11:54:43;;;;;;;9.68;4.58;;;;;;;23.11;58.88;99220.50;2153202;81;28598;-63
2022/09/14 11:57:50;;;;;;;6.40;4.30;;;;;;;23.13;58.72;99214.84;2184950;81;33044;-64
2022/09/14 12:01:11;;;;;;;9.30;5.22;;;;;;;23.14;58.71;99206.97;2184975;81;30523;-65
2022/09/14 12:04:16;;;;;;;11.43;5.75;;;;;;;23.08;58.17;99203.64;2180902;81;27687;-64
2022/09/14 12:07:42;;;;;;;8.00;4.92;;;;;;;23.02;58.12;99210.66;2184819;81;28677;-65
2022/09/14 12:11:09;;;;;;;9.00;5.15;;;;;;;23.06;58.44;99209.27;2184804;81;31244;-64
2022/09/14 12:14:28;;;;;;;8.78;4.40;;;;;;;23.10;58.06;99217.94;2184353;81;32996;-64
2022/09/14 12:17:32;;;;;;;9.45;4.95;;;;;;;23.10;58.25;99221.53;2184665;81;30238;-64
2022/09/14 12:20:45;;;;;;;10.68;4.50;;;;;;;23.17;58.52;99214.27;2184790;81;27691;-64
2022/09/14 12:23:50;;;;;;;8.68;4.65;;;;;;;23.26;58.44;99214.24;2184986;81;28639;-64
2022/09/14 12:26:54;;;;;;;10.32;4.85;;;;;;;23.23;58.13;99205.91;2185073;81;32284;-64
2022/09/14 12:29:55;;;;;;;10.17;4.87;;;;;;;23.19;57.93;99204.55;2185221;81;32965;-64
2022/09/14 12:32:56;;;;;;;9.03;4.65;;;;;;;23.21;57.84;99207.45;2184882;81;29683;-64
2022/09/14 12:36:20;;;;;;;12.13;5.17;;;;;;;23.25;58.09;99207.08;2185167;81;27677;-64
2022/09/14 12:39:31;;;;;;;9.15;5.70;;;;;;;23.35;58.38;99215.34;2196800;80;28674;-63
2022/09/14 12:42:33;;;;;;;10.30;6.05;;;;;;;23.42;58.40;99214.08;2220076;80;32272;-63
2022/09/14 12:46:22;;;;;;;12.75;6.22;;;;;;;23.36;57.97;99203.88;2212945;80;32747;-65
2022/09/14 12:49:30;;;;;;;9.88;5.67;;;;;;;23.40;57.75;99193.45;2176820;80;29426;-64
2022/09/14 12:52:49;;;;;;;7.95;5.08;;;;;;;23.46;58.18;99183.98;2176569;81;27702;-65
2022/09/14 12:55:59;;;;;;;12.00;6.87;;;;;;;23.58;58.47;99178.86;2194699;81;30008;-63
2022/09/14 12:59:33;;;;;;;11.33;5.95;;;;;;;23.68;57.97;99190.88;2194960;81;32026;-63
2022/09/14 13:03:13;;;;;;;6.72;5.08;;;;;;;23.73;58.15;99188.44;2100275;84;35104;-64
2022/09/14 13:06:19;;;;;;;7.12;5.70;;;;;;;23.80;58.28;99177.59;2091518;85;29506;-63
2022/09/14 13:09:27;;;;;;;10.98;6.67;;;;;;;23.74;57.78;99167.43;2091927;85;27695;-64
2022/09/14 13:12:41;;;;;;;11.33;6.17;;;;;;;23.65;57.54;99166.68;2091575;85;29487;-65
2022/09/14 13:15:57;;;;;;;10.98;6.65;;;;;;;23.56;57.62;99156.36;2089657;85;31507;-65
2022/09/14 13:19:03;;;;;;;10.10;6.10;;;;;;;23.46;57.62;99168.08;2154728;82;32936;-64
2022/09/14 13:22:21;;;;;;;12.98;5.58;;;;;;;23.45;57.56;99160.41;2147739;82;29020;-63
2022/09/14 13:25:36;;;;;;;9.08;5.65;;;;;;;23.45;57.86;99150.84;2123777;83;27862;-64
2022/09/14 13:28:37;;;;;;;10.45;6.37;;;;;;;23.46;58.25;99141.61;2124905;83;30700;-63
2022/09/14 13:31:39;;;;;;;13.10;6.70;;;;;;;23.50;58.07;99137.97;2120851;83;30295;-64
2022/09/14 13:34:41;;;;;;;11.12;6.28;;;;;;;23.60;58.46;99134.41;2100253;84;33077;-63
2022/09/14 13:37:43;;;;;;;11.00;6.55;;;;;;;23.64;58.19;99131.64;2156665;81;29540;-63
2022/09/14 13:40:47;;;;;;;19.45;6.97;;;;;;;23.65;58.04;99137.97;2181107;80;27675;-63
2022/09/14 13:43:53;;;;;;;8.98;6.87;;;;;;;23.56;58.11;99131.75;2181591;81;28668;-63
2022/09/14 13:46:57;;;;;;;11.57;6.92;;;;;;;23.45;57.82;99126.24;2181185;81;31006;-62
2022/09/14 13:50:00;;;;;;;10.35;7.05;;;;;;;23.26;57.89;99121.34;2180959;81;33007;-62
2022/09/14 13:53:01;;;;;;;11.30;6.75;;;;;;;23.11;58.36;99124.87;2180592;80;29469;-62
2022/09/14 13:56:20;;;;;;;7.33;6.58;;;;;;;23.02;58.58;99121.38;2176693;81;27740;-63
2022/09/14 13:59:25;;;;;;;12.90;7.00;;;;;;;22.95;58.94;99114.12;2178917;81;29003;-63
2022/09/14 14:02:29;;;;;;;9.18;6.97;;;;;;;22.83;59.17;99108.26;2176999;81;31023;-63
2022/09/14 14:05:36;;;;;;;10.23;7.65;;;;;;;22.76;59.45;99095.86;2176138;81;32891;-64
2022/09/14 14:08:38;;;;;;;13.83;7.60;;;;;;;22.72;59.75;99092.67;2175383;81;29349;-64
2022/09/14 14:11:46;;;;;;;11.70;8.18;;;;;;;22.67;59.78;99096.98;2176548;81;27645;-65
2022/09/14 14:14:55;;;;;;;10.63;7.92;;;;;;;22.58;59.88;99103.03;2179120;80;30063;-63
2022/09/14 14:17:57;;;;;;;12.73;8.55;;;;;;;22.53;60.08;99105.45;2178880;81;30975;-62
2022/09/14 14:21:23;;;;;;;10.98;8.58;;;;;;;22.47;60.14;99093.40;2183014;80;34068;-61
2022/09/14 14:24:27;;;;;;;13.98;8.95;;;;;;;22.46;60.16;99096.63;2211340;80;29023;-62
2022/09/14 14:27:38;;;;;;;11.50;8.85;;;;;;;22.49;60.53;99091.84;2188875;80;28252;-61
2022/09/14 14:30:41;;;;;;;15.75;9.35;;;;;;;22.52;60.36;99089.58;2219670;80;28726;-62
2022/09/14 14:33:50;;;;;;;15.50;9.83;;;;;;;22.49;60.28;99088.61;2219641;80;30940;-62